Air Navigation Services of Czech Republic  
Last data update:  23.09.2020 06:18:25 UTC česká verze
   METEO Page displayed:  23.09.2020 06:19:17 UTC  
help
METAR EDDB 230550Z 13004KT CAVOK 13/12 Q1005 NOSIG=
METAR EDDC 230550Z 15006KT CAVOK 16/11 Q1007 NOSIG=
METAR EDDE 230550Z 21007KT 9999 FEW040 15/12 Q1007 NOSIG=
METAR EDDF 230550Z 20005KT CAVOK 17/13 Q1007 NOSIG=
METAR EDDM 230550Z 24012KT 5000 SHRA FEW012 SCT015CB SCT041 15/14 Q1010 BECMG NSW=
METAR EDDN 230550Z VRB02KT 9999 SCT030CB 14/13 Q1008 TEMPO 22010KT 4000 TSRA=
METAR EDDP 230550Z 18005KT CAVOK 16/12 Q1006 NOSIG=
METAR EDDT 230550Z 13003KT CAVOK 16/12 Q1005 NOSIG=
METAR EDQM 230550Z 20002KT CAVOK 12/11 Q1008=
METAR EPBY 230600Z VRB02KT CAVOK 14/10 Q1008=
METAR EPGD 230600Z VRB02KT CAVOK 15/11 Q1007=
METAR EPKK 230600Z 07006KT CAVOK 11/10 Q1011=
METAR EPKT 230600Z 06004KT CAVOK 13/10 Q1011=
METAR EPLL 230600Z 08003KT CAVOK 13/11 Q1010=
METAR EPPO 230600Z 12004KT CAVOK 14/11 Q1007=
METAR EPRZ 230600Z 14003KT CAVOK 12/10 Q1012=
METAR EPWA 230600Z 13006KT CAVOK 13/11 Q1011 NOSIG=
METAR EPWR 230600Z 13007KT CAVOK 15/11 Q1008=
METAR LHBP 230600Z VRB02KT CAVOK 18/13 Q1012 NOSIG=
METAR LHSM 230545Z AUTO 15003KT 7000 NSC 15/15 Q1010 NOSIG=
SPECI LKBC 230600Z AUTO VRB01KT 9000 NCD 11/09 Q1008=
METAR LKCV 230600Z 02004KT CAVOK 15/10 Q1008 NOSIG RMK BLU BLU=
METAR LKKB 230600Z 15003KT CAVOK 14/11 Q1008 NOSIG RMK BLU BLU=
METAR LKKU 230600Z 05003KT 340V140 CAVOK 14/11 Q1009=
METAR LKKV 230600Z 12003KT 9999 MIFG NSC 11/11 Q1008 RMK REG QNH 1006=
SPECI LKLN 230608Z AUTO 00000KT 0250 FG VV004 11/11 Q1008=
METAR LKMT 230600Z VRB01KT CAVOK 13/11 Q1010 NOSIG RMK REG QNH 1006=
METAR LKNA 230600Z 10010KT CAVOK 14/09 Q1009 NOSIG RMK BLU BLU=
METAR LKPD 230600Z VRB02KT CAVOK 12/10 Q1008 NOSIG RMK BLU BLU=
METAR LKPJ 230600Z AUTO VRB01KT CAVOK 11/09 Q1010=
METAR LKPR 230600Z 22003KT CAVOK 13/11 Q1008 NOSIG RMK REG QNH 1006=
METAR LKTB 230600Z 08008KT CAVOK 16/10 Q1009 NOSIG RMK REG QNH 1006=
METAR LKVO 230600Z 28002KT CAVOK 14/11 Q1008=
METAR LOWI 230550Z VRB02KT 9999 SCT050 BKN060 15/13 Q1011 TEMPO SHRA SCT050 FEW050CB BKN060=
METAR LOWL 230550Z 27004KT 240V330 8000 FEW016 BKN019 15/14 Q1008 NOSIG=
METAR LOWS 230550Z 14003KT 080V170 9999 FEW012 SCT035 FEW050CB BKN060 15/12 Q1009 TEMPO 29012KT -SHRA=
METAR LOWW 230550Z 12007KT CAVOK 15/13 Q1008 NOSIG=
METAR LZIB 230600Z 03006KT CAVOK 16/11 Q1010 NOSIG=
METAR LZKZ 230600Z 36006KT CAVOK 14/10 Q1013 NOSIG=
METAR LZMC 230600Z 15008KT 9999 FEW024 SCT100 BKN200 17/13 Q1010=
METAR LZPP 230600Z 10007KT CAVOK 18/10 Q1010=
METAR LZSL 230600Z VRB01KT CAVOK 13/11 Q1013=
METAR LZTT 230600Z VRB02KT 9999 FEW056 BKN100 12/09 Q1014 NOSIG=
METAR LZZI 230600Z VRB02KT CAVOK 11/10 Q1011=